createdAt,value
2017-01-11T00:00:09.773Z,1005.87
2017-01-11T00:00:50.501Z,1005.86
2017-01-11T00:01:31.461Z,1005.82
2017-01-11T00:02:12.214Z,1005.8
2017-01-11T00:02:52.969Z,1005.76
2017-01-11T00:03:33.723Z,1005.73
2017-01-11T00:04:14.479Z,1005.77
2017-01-11T00:04:55.239Z,1005.73
2017-01-11T00:05:35.995Z,1005.69
2017-01-11T00:06:16.748Z,1005.68
2017-01-11T00:06:57.399Z,1005.66
2017-01-11T00:07:38.156Z,1005.64
2017-01-11T00:08:18.907Z,1005.65
2017-01-11T00:08:59.558Z,1005.62
2017-01-11T00:09:40.136Z,1005.66
2017-01-11T00:10:20.725Z,1005.64
2017-01-11T00:11:01.527Z,1005.61
2017-01-11T00:11:42.277Z,1005.62
2017-01-11T00:12:22.872Z,1005.63
2017-01-11T00:13:03.633Z,1005.65
2017-01-11T00:13:44.341Z,1005.61
2017-01-11T00:14:25.093Z,1005.55
2017-01-11T00:15:05.669Z,1005.51
2017-01-11T00:15:46.359Z,1005.55
2017-01-11T00:16:27.074Z,1005.54
2017-01-11T00:17:07.810Z,1005.64
2017-01-11T00:17:49.374Z,1005.65
2017-01-11T00:18:30.102Z,1005.67
2017-01-11T00:19:10.838Z,1005.71
2017-01-11T00:19:51.643Z,1005.66
2017-01-11T00:20:32.242Z,1005.68
2017-01-11T00:21:13.007Z,1005.62
2017-01-11T00:21:54.799Z,1005.61
2017-01-11T00:22:36.556Z,1005.55
2017-01-11T00:23:17.327Z,1005.53
2017-01-11T00:23:58.076Z,1005.54
2017-01-11T00:24:38.847Z,1005.51
2017-01-11T00:25:21.544Z,1005.54
2017-01-11T00:26:02.109Z,1005.54
2017-01-11T00:26:42.891Z,1005.52
2017-01-11T00:27:23.648Z,1005.5
2017-01-11T00:28:04.211Z,1005.53
2017-01-11T00:28:44.921Z,1005.52
2017-01-11T00:29:25.721Z,1005.51
2017-01-11T00:30:06.462Z,1005.51
2017-01-11T00:30:47.244Z,1005.46
2017-01-11T00:31:28.020Z,1005.49
2017-01-11T00:32:09.848Z,1005.42
2017-01-11T00:32:50.494Z,1005.42
2017-01-11T00:33:31.221Z,1005.38
2017-01-11T00:34:11.773Z,1005.4
2017-01-11T00:34:52.514Z,1005.39
2017-01-11T00:35:33.220Z,1005.34
2017-01-11T00:36:13.770Z,1005.31
2017-01-11T00:36:56.521Z,1005.35
2017-01-11T00:37:37.126Z,1005.35
2017-01-11T00:38:18.801Z,1005.33
2017-01-11T00:38:59.374Z,1005.29
2017-01-11T00:39:44.868Z,1005.27
2017-01-11T00:40:25.486Z,1005.31
2017-01-11T00:41:06.327Z,1005.31
2017-01-11T00:41:49.032Z,1005.34
2017-01-11T00:42:29.682Z,1005.28
2017-01-11T00:43:11.360Z,1005.29
2017-01-11T00:43:52.014Z,1005.34
2017-01-11T00:44:32.671Z,1005.41
2017-01-11T00:45:13.318Z,1005.38
2017-01-11T00:45:53.970Z,1005.46
2017-01-11T00:46:34.628Z,1005.44
2017-01-11T00:47:15.279Z,1005.44
2017-01-11T00:47:55.928Z,1005.47
2017-01-11T00:48:37.612Z,1005.49
2017-01-11T00:49:18.263Z,1005.45
2017-01-11T00:49:58.825Z,1005.45
2017-01-11T00:50:39.387Z,1005.45
2017-01-11T00:51:20.064Z,1005.44
2017-01-11T00:52:00.766Z,1005.4
2017-01-11T00:52:46.027Z,1005.39
2017-01-11T00:53:26.632Z,1005.32
2017-01-11T00:54:09.227Z,1005.27
2017-01-11T00:54:50.918Z,1005.18
2017-01-11T00:55:31.522Z,1005.13
2017-01-11T00:56:12.087Z,1005.06
2017-01-11T00:56:53.707Z,1005.08
2017-01-11T00:57:36.336Z,1005.1
2017-01-11T00:58:16.989Z,1005.1
2017-01-11T00:58:57.562Z,1005.1
2017-01-11T00:59:38.251Z,1005.11
2017-01-11T01:00:18.896Z,1005.13
2017-01-11T01:00:59.500Z,1005.15
2017-01-11T01:01:41.176Z,1005.17
2017-01-11T01:02:21.840Z,1005.19
2017-01-11T01:03:02.492Z,1005.28
2017-01-11T01:03:43.158Z,1005.27
2017-01-11T01:04:23.788Z,1005.3
2017-01-11T01:05:04.438Z,1005.36
2017-01-11T01:05:45.085Z,1005.33
2017-01-11T01:06:25.683Z,1005.34
2017-01-11T01:07:06.330Z,1005.34
2017-01-11T01:07:46.947Z,1005.37
2017-01-11T01:08:27.710Z,1005.37
2017-01-11T01:09:08.292Z,1005.36
2017-01-11T01:09:49.869Z,1005.36
2017-01-11T01:10:32.406Z,1005.29
2017-01-11T01:11:13.083Z,1005.24
2017-01-11T01:11:53.730Z,1005.27
2017-01-11T01:12:34.388Z,1005.23
2017-01-11T01:13:15.955Z,1005.18
2017-01-11T01:13:56.612Z,1005.15
2017-01-11T01:14:37.261Z,1005.15
2017-01-11T01:15:18.637Z,1005.1
2017-01-11T01:15:59.209Z,1005.06
2017-01-11T01:16:40.573Z,1005.07
2017-01-11T01:17:21.206Z,1005.06
2017-01-11T01:18:01.797Z,1005.07
2017-01-11T01:18:42.413Z,1005.04
2017-01-11T01:19:23.065Z,1005.03
2017-01-11T01:20:03.694Z,1005.02
2017-01-11T01:20:44.369Z,1005.05
2017-01-11T01:21:25.020Z,1005.06
2017-01-11T01:22:05.674Z,1005.06
2017-01-11T01:22:46.948Z,1005.11
2017-01-11T01:23:27.636Z,1005.14
2017-01-11T01:24:09.277Z,1005.14
2017-01-11T01:24:49.929Z,1005.19
2017-01-11T01:25:30.578Z,1005.1
2017-01-11T01:26:11.233Z,1005.16
2017-01-11T01:26:51.892Z,1005.18
2017-01-11T01:27:32.538Z,1005.15
2017-01-11T01:28:13.290Z,1005.13
2017-01-11T01:28:54.050Z,1005.13
2017-01-11T01:29:34.706Z,1005.13
2017-01-11T01:30:15.357Z,1005.07
2017-01-11T01:30:56.010Z,1005.05
2017-01-11T01:31:36.590Z,1005.05
2017-01-11T01:32:17.213Z,1005.12
2017-01-11T01:32:57.872Z,1005.1
2017-01-11T01:33:38.524Z,1005.08
2017-01-11T01:34:19.173Z,1005.1
2017-01-11T01:35:00.959Z,1005.1
2017-01-11T01:35:41.574Z,1005.09
2017-01-11T01:36:22.235Z,1005.1
2017-01-11T01:37:02.917Z,1005.11
2017-01-11T01:37:43.499Z,1005.13
2017-01-11T01:38:24.167Z,1005.11
2017-01-11T01:39:04.764Z,1005.15
2017-01-11T01:39:45.620Z,1005.12
2017-01-11T01:40:26.188Z,1005.13
2017-01-11T01:41:06.877Z,1005.13
2017-01-11T01:41:47.481Z,1005.11
2017-01-11T01:42:28.052Z,1005.12
2017-01-11T01:43:09.736Z,1005.13
2017-01-11T01:43:50.908Z,1005.19
2017-01-11T01:44:31.489Z,1005.25
2017-01-11T01:45:12.242Z,1005.24
2017-01-11T01:45:52.932Z,1005.24
2017-01-11T01:46:33.494Z,1005.2
2017-01-11T01:47:14.192Z,1005.14
2017-01-11T01:47:54.795Z,1005.07
2017-01-11T01:48:35.446Z,1005.11
2017-01-11T01:49:16.002Z,1005.01
2017-01-11T01:49:56.698Z,1005.04
2017-01-11T01:50:38.486Z,1004.98
2017-01-11T01:51:19.212Z,1005
2017-01-11T01:51:59.841Z,1004.98
2017-01-11T01:52:40.695Z,1004.95
2017-01-11T01:53:22.374Z,1004.99
2017-01-11T01:54:03.613Z,1004.99
2017-01-11T01:54:43.984Z,1004.99
2017-01-11T01:55:24.641Z,1004.98
2017-01-11T01:56:05.291Z,1004.98
2017-01-11T01:56:45.849Z,1004.93
2017-01-11T01:57:26.494Z,1004.94
2017-01-11T01:58:07.143Z,1004.95
2017-01-11T01:58:47.725Z,1004.99
2017-01-11T01:59:28.332Z,1004.96
2017-01-11T02:00:08.995Z,1004.97
2017-01-11T02:00:49.564Z,1004.94
2017-01-11T02:01:30.207Z,1004.86
2017-01-11T02:02:10.771Z,1004.87
2017-01-11T02:02:51.460Z,1004.88
2017-01-11T02:03:34.110Z,1004.83
2017-01-11T02:04:14.686Z,1004.81
2017-01-11T02:04:56.334Z,1004.79
2017-01-11T02:05:36.903Z,1004.83
2017-01-11T02:06:17.540Z,1004.8
2017-01-11T02:06:59.214Z,1004.84
2017-01-11T02:07:39.782Z,1004.78
2017-01-11T02:08:20.424Z,1004.74
2017-01-11T02:09:01.076Z,1004.74
2017-01-11T02:09:41.649Z,1004.73
2017-01-11T02:10:23.299Z,1004.75
2017-01-11T02:11:03.951Z,1004.72
2017-01-11T02:11:44.609Z,1004.71
2017-01-11T02:12:25.258Z,1004.7
2017-01-11T02:13:05.914Z,1004.67
2017-01-11T02:13:47.586Z,1004.58
2017-01-11T02:14:29.266Z,1004.6
2017-01-11T02:15:09.916Z,1004.6
2017-01-11T02:15:50.576Z,1004.59
2017-01-11T02:16:31.223Z,1004.54
2017-01-11T02:17:11.875Z,1004.57
2017-01-11T02:17:52.529Z,1004.6
2017-01-11T02:18:33.278Z,1004.7
2017-01-11T02:19:15.985Z,1004.66
2017-01-11T02:19:56.639Z,1004.68
2017-01-11T02:20:37.287Z,1004.61
2017-01-11T02:21:17.868Z,1004.56
2017-01-11T02:21:59.493Z,1004.52
2017-01-11T02:22:41.045Z,1004.41
2017-01-11T02:23:21.747Z,1004.46
2017-01-11T02:24:02.346Z,1004.4
2017-01-11T02:24:42.996Z,1004.41
2017-01-11T02:25:24.626Z,1004.38
2017-01-11T02:26:05.277Z,1004.31
2017-01-11T02:26:45.929Z,1004.31
2017-01-11T02:27:27.605Z,1004.29
2017-01-11T02:28:08.258Z,1004.28
2017-01-11T02:28:48.913Z,1004.26
2017-01-11T02:29:29.565Z,1004.26
2017-01-11T02:30:11.963Z,1004.24
2017-01-11T02:30:52.531Z,1004.27
2017-01-11T02:31:33.212Z,1004.31
2017-01-11T02:32:14.738Z,1004.33
2017-01-11T02:32:55.289Z,1004.34
2017-01-11T02:33:35.880Z,1004.34
2017-01-11T02:34:16.492Z,1004.42
2017-01-11T02:34:57.144Z,1004.41
2017-01-11T02:35:37.725Z,1004.41
2017-01-11T02:36:18.405Z,1004.42
2017-01-11T02:37:00.129Z,1004.38
2017-01-11T02:37:40.681Z,1004.35
2017-01-11T02:38:21.333Z,1004.34
2017-01-11T02:39:02.080Z,1004.3
2017-01-11T02:39:42.655Z,1004.34
2017-01-11T02:40:23.287Z,1004.31
2017-01-11T02:41:03.940Z,1004.3
2017-01-11T02:41:44.512Z,1004.29
2017-01-11T02:42:25.209Z,1004.27
2017-01-11T02:43:05.905Z,1004.24
2017-01-11T02:43:47.372Z,1004.26
2017-01-11T02:44:27.941Z,1004.22
2017-01-11T02:45:09.544Z,1004.27
2017-01-11T02:45:51.173Z,1004.22
2017-01-11T02:46:31.845Z,1004.25
2017-01-11T02:47:12.395Z,1004.23
2017-01-11T02:47:54.001Z,1004.29
2017-01-11T02:48:34.604Z,1004.31
2017-01-11T02:49:15.174Z,1004.23
2017-01-11T02:49:55.813Z,1004.28
2017-01-11T02:50:36.412Z,1004.29
2017-01-11T02:51:17.154Z,1004.25
2017-01-11T02:51:57.769Z,1004.26
2017-01-11T02:52:38.423Z,1004.23
2017-01-11T02:53:19.011Z,1004.24
2017-01-11T02:53:59.673Z,1004.17
2017-01-11T02:54:40.382Z,1004.14
2017-01-11T02:55:21.033Z,1004.07
2017-01-11T02:56:01.616Z,1004.05
2017-01-11T02:56:42.283Z,1004
2017-01-11T02:57:22.997Z,1003.97
2017-01-11T02:58:10.502Z,1003.96
2017-01-11T02:58:51.075Z,1003.88
2017-01-11T02:59:32.676Z,1003.85
2017-01-11T03:00:13.384Z,1003.8
2017-01-11T03:00:54.041Z,1003.78
2017-01-11T03:01:34.692Z,1003.74
2017-01-11T03:02:15.342Z,1003.75
2017-01-11T03:02:55.995Z,1003.76
2017-01-11T03:03:36.649Z,1003.73
2017-01-11T03:04:17.301Z,1003.75
2017-01-11T03:04:57.875Z,1003.77
2017-01-11T03:05:38.623Z,1003.85
2017-01-11T03:06:19.969Z,1003.86
2017-01-11T03:07:01.656Z,1003.93
2017-01-11T03:07:42.231Z,1003.99
2017-01-11T03:08:22.911Z,1004.07
2017-01-11T03:09:03.616Z,1004.06
2017-01-11T03:09:44.268Z,1004.07
2017-01-11T03:10:24.834Z,1004.08
2017-01-11T03:11:05.519Z,1004.14
2017-01-11T03:11:46.228Z,1004.12
2017-01-11T03:12:26.881Z,1004.07
2017-01-11T03:13:07.535Z,1004.09
2017-01-11T03:13:48.187Z,1004.02
2017-01-11T03:14:28.840Z,1003.99
2017-01-11T03:15:09.494Z,1003.94
2017-01-11T03:15:50.143Z,1003.92
2017-01-11T03:16:30.737Z,1003.91
2017-01-11T03:17:12.418Z,1003.91
2017-01-11T03:17:53.029Z,1003.89
2017-01-11T03:18:33.780Z,1003.91
2017-01-11T03:19:14.379Z,1003.85
2017-01-11T03:19:56.073Z,1003.87
2017-01-11T03:20:36.764Z,1003.89
2017-01-11T03:21:17.410Z,1003.85
2017-01-11T03:21:57.978Z,1003.86
2017-01-11T03:22:38.675Z,1003.86
2017-01-11T03:23:19.387Z,1003.86
2017-01-11T03:24:00.028Z,1003.86
2017-01-11T03:24:40.615Z,1003.86
2017-01-11T03:25:23.064Z,1003.86
2017-01-11T03:26:03.732Z,1003.87
2017-01-11T03:26:44.381Z,1003.86
2017-01-11T03:27:24.943Z,1003.88
2017-01-11T03:28:06.600Z,1003.8
2017-01-11T03:28:47.175Z,1003.75
2017-01-11T03:29:27.813Z,1003.74
2017-01-11T03:30:08.466Z,1003.73
2017-01-11T03:30:49.028Z,1003.71
2017-01-11T03:31:29.736Z,1003.73
2017-01-11T03:32:10.438Z,1003.79
2017-01-11T03:32:51.076Z,1003.79
2017-01-11T03:33:31.640Z,1003.86
2017-01-11T03:34:12.346Z,1003.85
2017-01-11T03:34:53.049Z,1003.88
2017-01-11T03:35:33.690Z,1003.85
2017-01-11T03:36:14.251Z,1003.87
2017-01-11T03:36:54.827Z,1003.86
2017-01-11T03:37:35.506Z,1003.8
2017-01-11T03:38:16.210Z,1003.76
2017-01-11T03:38:56.854Z,1003.69
2017-01-11T03:39:37.430Z,1003.72
2017-01-11T03:40:18.118Z,1003.72
2017-01-11T03:40:58.820Z,1003.69
2017-01-11T03:41:39.471Z,1003.7
2017-01-11T03:42:20.118Z,1003.74
2017-01-11T03:43:00.770Z,1003.71
2017-01-11T03:43:42.447Z,1003.7
2017-01-11T03:44:23.108Z,1003.69
2017-01-11T03:45:03.751Z,1003.7
2017-01-11T03:45:44.404Z,1003.72
2017-01-11T03:46:25.000Z,1003.73
2017-01-11T03:47:05.661Z,1003.77
2017-01-11T03:47:46.372Z,1003.77
2017-01-11T03:48:27.025Z,1003.78
2017-01-11T03:49:07.577Z,1003.8
2017-01-11T03:49:48.277Z,1003.72
2017-01-11T03:50:28.984Z,1003.68
2017-01-11T03:51:09.637Z,1003.68
2017-01-11T03:51:50.291Z,1003.65
2017-01-11T03:52:30.860Z,1003.67
2017-01-11T03:53:11.538Z,1003.64
2017-01-11T03:53:52.194Z,1003.63
2017-01-11T03:54:32.843Z,1003.67
2017-01-11T03:55:13.500Z,1003.6
2017-01-11T03:55:54.160Z,1003.6
2017-01-11T03:56:34.803Z,1003.57
2017-01-11T03:57:15.506Z,1003.58
2017-01-11T03:57:56.218Z,1003.51
2017-01-11T03:58:37.889Z,1003.51
2017-01-11T03:59:18.540Z,1003.49
2017-01-11T03:59:59.197Z,1003.5
2017-01-11T04:00:39.848Z,1003.5
2017-01-11T04:01:20.492Z,1003.57
2017-01-11T04:02:02.124Z,1003.48
2017-01-11T04:02:42.785Z,1003.46
2017-01-11T04:03:23.347Z,1003.39
2017-01-11T04:04:04.037Z,1003.37
2017-01-11T04:04:44.745Z,1003.28
2017-01-11T04:05:25.395Z,1003.2
2017-01-11T04:06:05.961Z,1003.23
2017-01-11T04:06:46.646Z,1003.21
2017-01-11T04:07:27.354Z,1003.22
2017-01-11T04:08:07.918Z,1003.17
2017-01-11T04:08:48.558Z,1003.21
2017-01-11T04:09:29.115Z,1003.17
2017-01-11T04:10:09.837Z,1003.19
2017-01-11T04:10:50.508Z,1003.14
2017-01-11T04:11:31.170Z,1003.11
2017-01-11T04:12:11.821Z,1003.09
2017-01-11T04:12:52.482Z,1003.02
2017-01-11T04:13:33.745Z,1003.02
2017-01-11T04:14:14.397Z,1002.99
2017-01-11T04:14:55.050Z,1002.95
2017-01-11T04:15:35.701Z,1002.94
2017-01-11T04:16:17.380Z,1002.9
2017-01-11T04:16:58.034Z,1002.93
2017-01-11T04:17:38.681Z,1002.95
2017-01-11T04:18:19.339Z,1002.95
2017-01-11T04:18:59.985Z,1002.92
2017-01-11T04:19:40.643Z,1002.99
2017-01-11T04:20:23.055Z,1002.97
2017-01-11T04:21:03.691Z,1002.96
2017-01-11T04:21:45.164Z,1002.96
2017-01-11T04:22:25.815Z,1002.97
2017-01-11T04:23:06.470Z,1002.93
2017-01-11T04:23:47.225Z,1002.96
2017-01-11T04:24:27.878Z,1002.96
2017-01-11T04:25:08.649Z,1002.98
2017-01-11T04:25:49.286Z,1002.96
2017-01-11T04:26:29.940Z,1002.97
2017-01-11T04:27:10.595Z,1002.94
2017-01-11T04:27:51.243Z,1002.95
2017-01-11T04:28:31.898Z,1002.94
2017-01-11T04:29:12.548Z,1002.91
2017-01-11T04:29:53.200Z,1002.86
2017-01-11T04:30:33.852Z,1002.92
2017-01-11T04:31:14.506Z,1002.9
2017-01-11T04:31:55.160Z,1002.9
2017-01-11T04:32:35.737Z,1002.93
2017-01-11T04:33:16.467Z,1002.92
2017-01-11T04:33:57.120Z,1002.97
2017-01-11T04:34:37.770Z,1003.01
2017-01-11T04:35:18.449Z,1002.96
2017-01-11T04:35:59.092Z,1002.94
2017-01-11T04:36:39.738Z,1002.93
2017-01-11T04:37:21.429Z,1002.86
2017-01-11T04:38:02.065Z,1002.87
2017-01-11T04:38:42.711Z,1002.87
2017-01-11T04:39:23.385Z,1002.85
2017-01-11T04:40:04.019Z,1002.78
2017-01-11T04:40:44.673Z,1002.83
2017-01-11T04:41:25.343Z,1002.87
2017-01-11T04:42:07.001Z,1002.92
2017-01-11T04:42:47.657Z,1002.91
2017-01-11T04:43:28.308Z,1002.88
2017-01-11T04:44:08.976Z,1002.93
2017-01-11T04:44:49.612Z,1002.92
2017-01-11T04:45:30.272Z,1002.91
2017-01-11T04:46:10.923Z,1002.89
2017-01-11T04:46:51.577Z,1002.89
2017-01-11T04:47:32.225Z,1002.87
2017-01-11T04:48:12.879Z,1002.81
2017-01-11T04:48:53.533Z,1002.85
2017-01-11T04:49:34.290Z,1002.82
2017-01-11T04:50:14.943Z,1002.78
2017-01-11T04:50:55.592Z,1002.76
2017-01-11T04:51:36.164Z,1002.71
2017-01-11T04:52:16.863Z,1002.74
2017-01-11T04:52:57.550Z,1002.72
2017-01-11T04:53:38.208Z,1002.72
2017-01-11T04:54:18.778Z,1002.76
2017-01-11T04:54:59.476Z,1002.74
2017-01-11T04:55:41.191Z,1002.75
2017-01-11T04:56:21.844Z,1002.71
2017-01-11T04:57:02.489Z,1002.68
2017-01-11T04:57:43.149Z,1002.69
2017-01-11T04:58:23.794Z,1002.63
2017-01-11T04:59:04.451Z,1002.65
2017-01-11T04:59:45.110Z,1002.64
2017-01-11T05:00:25.757Z,1002.65
2017-01-11T05:01:06.509Z,1002.54
2017-01-11T05:01:47.086Z,1002.48
2017-01-11T05:02:27.768Z,1002.48
2017-01-11T05:03:08.373Z,1002.41
2017-01-11T05:03:48.952Z,1002.4
2017-01-11T05:04:29.624Z,1002.42
2017-01-11T05:05:12.311Z,1002.41
2017-01-11T05:05:53.953Z,1002.42
2017-01-11T05:06:34.531Z,1002.44
2017-01-11T05:07:16.176Z,1002.42
2017-01-11T05:07:56.931Z,1002.45
2017-01-11T05:08:37.507Z,1002.43
2017-01-11T05:09:18.237Z,1002.42
2017-01-11T05:09:58.891Z,1002.4
2017-01-11T05:10:39.461Z,1002.43
2017-01-11T05:11:20.105Z,1002.37
2017-01-11T05:12:00.856Z,1002.37
2017-01-11T05:12:41.618Z,1002.42
2017-01-11T05:13:22.262Z,1002.41
2017-01-11T05:14:02.922Z,1002.34
2017-01-11T05:14:50.327Z,1002.3
2017-01-11T05:15:35.792Z,1002.25
2017-01-11T05:16:17.461Z,1002.19
2017-01-11T05:17:00.167Z,1002.21
2017-01-11T05:17:40.817Z,1002.11
2017-01-11T05:18:21.468Z,1002.08
2017-01-11T05:19:02.229Z,1002.06
2017-01-11T05:19:43.905Z,1002.07
2017-01-11T05:20:24.555Z,1002
2017-01-11T05:21:05.208Z,1001.99
2017-01-11T05:21:46.891Z,1001.97
2017-01-11T05:22:27.487Z,1001.93
2017-01-11T05:23:08.141Z,1001.9
2017-01-11T05:23:48.843Z,1001.87
2017-01-11T05:24:29.500Z,1001.78
2017-01-11T05:25:10.152Z,1001.74
2017-01-11T05:25:50.873Z,1001.69
2017-01-11T05:26:31.567Z,1001.7
2017-01-11T05:27:12.225Z,1001.69
2017-01-11T05:27:52.978Z,1001.69
2017-01-11T05:28:33.623Z,1001.69
2017-01-11T05:29:14.275Z,1001.67
2017-01-11T05:29:54.936Z,1001.61
2017-01-11T05:30:35.577Z,1001.56
2017-01-11T05:31:16.237Z,1001.51
2017-01-11T05:31:56.996Z,1001.53
2017-01-11T05:32:37.549Z,1001.45
2017-01-11T05:33:18.249Z,1001.44
2017-01-11T05:33:58.955Z,1001.39
2017-01-11T05:34:39.659Z,1001.39
2017-01-11T05:35:20.215Z,1001.36
2017-01-11T05:36:00.855Z,1001.39
2017-01-11T05:36:41.467Z,1001.34
2017-01-11T05:37:22.108Z,1001.41
2017-01-11T05:38:02.869Z,1001.39
2017-01-11T05:38:43.525Z,1001.37
2017-01-11T05:39:24.179Z,1001.38
2017-01-11T05:40:04.832Z,1001.29
2017-01-11T05:40:45.486Z,1001.29
2017-01-11T05:41:26.133Z,1001.28
2017-01-11T05:42:06.893Z,1001.18
2017-01-11T05:42:48.430Z,1001.2
2017-01-11T05:43:29.115Z,1001.16
2017-01-11T05:44:10.791Z,1001.14
2017-01-11T05:44:51.457Z,1001.1
2017-01-11T05:45:32.003Z,1001.15
2017-01-11T05:46:12.640Z,1001.19
2017-01-11T05:46:53.302Z,1001.1
2017-01-11T05:47:33.875Z,1001.1
2017-01-11T05:48:14.508Z,1001.08
2017-01-11T05:48:55.161Z,1001.12
2017-01-11T05:49:35.747Z,1001.16
2017-01-11T05:50:16.475Z,1001.08
2017-01-11T05:50:57.222Z,1001.08
2017-01-11T05:51:37.785Z,1001.09
2017-01-11T05:52:18.526Z,1001.08
2017-01-11T05:52:59.183Z,1001.05
2017-01-11T05:53:39.759Z,1001.06
2017-01-11T05:54:20.489Z,1001.02
2017-01-11T05:55:01.241Z,1001.04
2017-01-11T05:55:41.804Z,1001.04
2017-01-11T05:56:22.549Z,1001.05
2017-01-11T05:57:03.199Z,1000.98
2017-01-11T05:57:43.845Z,1001.01
2017-01-11T05:58:24.507Z,1000.97
2017-01-11T05:59:05.151Z,1000.96
2017-01-11T05:59:45.741Z,1000.91
2017-01-11T06:00:26.457Z,1000.93
2017-01-11T06:01:07.109Z,1000.94
2017-01-11T06:01:47.677Z,1000.88
2017-01-11T06:02:28.367Z,1000.85
2017-01-11T06:03:09.070Z,1000.85
2017-01-11T06:03:49.723Z,1000.84
2017-01-11T06:04:30.302Z,1000.8
2017-01-11T06:05:10.977Z,1000.8
2017-01-11T06:05:51.518Z,1000.81
2017-01-11T06:06:32.230Z,1000.87
2017-01-11T06:07:13.907Z,1000.92
2017-01-11T06:07:54.567Z,1000.97
2017-01-11T06:08:35.219Z,1000.92
2017-01-11T06:09:17.966Z,1000.96
2017-01-11T06:09:58.674Z,1000.94
2017-01-11T06:10:39.324Z,1000.94
2017-01-11T06:11:19.978Z,1000.98
2017-01-11T06:12:00.636Z,1000.96
2017-01-11T06:12:41.206Z,1000.98
2017-01-11T06:13:21.887Z,1000.98
2017-01-11T06:14:02.592Z,1000.91
2017-01-11T06:14:43.151Z,1000.97
2017-01-11T06:15:23.898Z,1001
2017-01-11T06:16:04.473Z,1001.01
2017-01-11T06:16:45.150Z,1001.03
2017-01-11T06:17:25.801Z,1000.98
2017-01-11T06:18:06.460Z,1001.03
2017-01-11T06:18:47.109Z,1001.08
2017-01-11T06:19:27.763Z,1001.06
2017-01-11T06:20:09.440Z,1001
2017-01-11T06:20:51.097Z,1001.12
2017-01-11T06:21:31.779Z,1001.13
2017-01-11T06:22:12.465Z,1001.11
2017-01-11T06:22:53.127Z,1001.08
2017-01-11T06:23:33.735Z,1001.09
2017-01-11T06:24:14.434Z,1001.09
2017-01-11T06:24:55.016Z,1001.07
2017-01-11T06:25:36.711Z,1001.04
2017-01-11T06:26:17.281Z,1001.04
2017-01-11T06:26:57.988Z,1001.05
2017-01-11T06:27:38.536Z,1001.06
2017-01-11T06:28:20.143Z,1001.1
2017-01-11T06:29:00.741Z,1001.12
2017-01-11T06:29:41.320Z,1001.14
2017-01-11T06:30:21.928Z,1001.17
2017-01-11T06:31:02.596Z,1001.16
2017-01-11T06:31:43.253Z,1001.19
2017-01-11T06:32:23.812Z,1001.18
2017-01-11T06:33:04.458Z,1001.23
2017-01-11T06:33:45.111Z,1001.18
2017-01-11T06:34:25.690Z,1001.24
2017-01-11T06:35:06.313Z,1001.2
2017-01-11T06:35:46.965Z,1001.22
2017-01-11T06:36:27.602Z,1001.19
2017-01-11T06:37:08.273Z,1001.14
2017-01-11T06:37:49.943Z,1001.1
2017-01-11T06:38:30.523Z,1001.12
2017-01-11T06:39:12.124Z,1001.13
2017-01-11T06:39:52.722Z,1001.12
2017-01-11T06:40:33.378Z,1001.06
2017-01-11T06:41:13.959Z,1001.02
2017-01-11T06:41:54.585Z,1001.01
2017-01-11T06:42:35.235Z,1001.1
2017-01-11T06:43:15.888Z,1001.09
2017-01-11T06:43:56.536Z,1001.07
2017-01-11T06:44:38.110Z,1001.13
2017-01-11T06:45:18.871Z,1001.12
2017-01-11T06:46:00.551Z,1001.1
2017-01-11T06:46:41.117Z,1001.13
2017-01-11T06:47:21.719Z,1001.13
2017-01-11T06:48:02.304Z,1001.1
2017-01-11T06:48:42.876Z,1001.11
2017-01-11T06:49:23.503Z,1001.13
2017-01-11T06:50:04.111Z,1001.06
2017-01-11T06:50:44.785Z,1001.13
2017-01-11T06:51:25.468Z,1001.1
2017-01-11T06:52:06.116Z,1001.12
2017-01-11T06:52:46.773Z,1001.17
2017-01-11T06:53:27.423Z,1001.1
2017-01-11T06:54:08.081Z,1001.15
2017-01-11T06:54:48.726Z,1001.16
2017-01-11T06:55:29.384Z,1001.13
2017-01-11T06:56:09.958Z,1001.19
2017-01-11T06:56:50.713Z,1001.14
2017-01-11T06:57:31.410Z,1001.07
2017-01-11T06:58:12.045Z,1001.05
2017-01-11T06:58:52.710Z,1001.06
2017-01-11T06:59:33.350Z,1000.98
2017-01-11T07:00:14.003Z,1000.95
2017-01-11T07:00:54.660Z,1000.92
2017-01-11T07:01:36.243Z,1000.83
2017-01-11T07:02:17.959Z,1000.81
2017-01-11T07:02:58.578Z,1000.79
2017-01-11T07:03:39.183Z,1000.71
2017-01-11T07:04:19.780Z,1000.74
2017-01-11T07:05:00.365Z,1000.71
2017-01-11T07:05:40.931Z,1000.72
2017-01-11T07:06:21.577Z,1000.7
2017-01-11T07:07:02.227Z,1000.75
2017-01-11T07:07:42.796Z,1000.74
2017-01-11T07:08:23.420Z,1000.74
2017-01-11T07:09:04.080Z,1000.74
2017-01-11T07:09:44.658Z,1000.73
2017-01-11T07:10:25.283Z,1000.71
2017-01-11T07:11:06.960Z,1000.73
2017-01-11T07:11:47.534Z,1000.74
2017-01-11T07:12:28.219Z,1000.73
2017-01-11T07:13:08.762Z,1000.71
2017-01-11T07:13:49.419Z,1000.67
2017-01-11T07:14:30.038Z,1000.59
2017-01-11T07:15:11.708Z,1000.67
2017-01-11T07:15:52.282Z,1000.59
2017-01-11T07:16:32.959Z,1000.58
2017-01-11T07:17:13.549Z,1000.51
2017-01-11T07:17:55.227Z,1000.51
2017-01-11T07:18:35.880Z,1000.48
2017-01-11T07:19:16.537Z,1000.43
2017-01-11T07:19:57.200Z,1000.41
2017-01-11T07:20:37.828Z,1000.39
2017-01-11T07:21:18.487Z,1000.36
2017-01-11T07:21:59.144Z,1000.27
2017-01-11T07:22:39.721Z,1000.31
2017-01-11T07:23:20.414Z,1000.28
2017-01-11T07:24:00.996Z,1000.22
2017-01-11T07:24:41.653Z,1000.16
2017-01-11T07:25:22.359Z,1000.18
2017-01-11T07:26:04.067Z,1000.16
2017-01-11T07:26:44.735Z,1000.16
2017-01-11T07:27:26.310Z,1000.13
2017-01-11T07:28:06.890Z,1000.1
2017-01-11T07:28:47.471Z,1000.09
2017-01-11T07:29:28.077Z,1000.14
2017-01-11T07:30:08.673Z,1000.17
2017-01-11T07:30:49.224Z,1000.16
2017-01-11T07:31:29.800Z,1000.15
2017-01-11T07:32:10.424Z,1000.13
2017-01-11T07:32:51.019Z,1000.06
2017-01-11T07:33:31.680Z,1000.05
2017-01-11T07:34:12.258Z,1000.07
2017-01-11T07:34:52.858Z,1000.1
2017-01-11T07:35:33.432Z,1000.15
2017-01-11T07:36:14.090Z,1000.15
2017-01-11T07:36:54.650Z,1000.18
2017-01-11T07:37:35.240Z,1000.21
2017-01-11T07:38:16.040Z,1000.18
2017-01-11T07:38:56.649Z,1000.24
2017-01-11T07:39:37.300Z,1000.26
2017-01-11T07:40:17.970Z,1000.25
2017-01-11T07:40:58.605Z,1000.3
2017-01-11T07:41:40.290Z,1000.27
2017-01-11T07:42:22.072Z,1000.26
2017-01-11T07:43:02.663Z,1000.25
2017-01-11T07:43:44.234Z,1000.21
2017-01-11T07:44:24.893Z,1000.15
2017-01-11T07:45:05.537Z,1000.17
2017-01-11T07:45:46.314Z,1000.12
2017-01-11T07:46:26.947Z,1000.09
2017-01-11T07:47:07.606Z,1000.16
2017-01-11T07:47:48.258Z,1000.11
2017-01-11T07:48:28.908Z,1000.07
2017-01-11T07:49:10.588Z,1000.02
2017-01-11T07:49:51.244Z,1000.03
2017-01-11T07:50:31.962Z,1000
2017-01-11T07:51:12.530Z,999.93
2017-01-11T07:51:53.196Z,999.81
2017-01-11T07:52:33.854Z,999.78
2017-01-11T07:53:14.506Z,999.78
2017-01-11T07:53:55.192Z,999.75
2017-01-11T07:54:35.910Z,999.73
2017-01-11T07:55:16.577Z,999.77
2017-01-11T07:55:57.224Z,999.75
2017-01-11T07:56:37.875Z,999.76
2017-01-11T07:57:20.578Z,999.82
2017-01-11T07:58:02.251Z,999.79
2017-01-11T07:58:42.906Z,999.81
2017-01-11T07:59:23.539Z,999.77
2017-01-11T08:00:04.290Z,999.67
2017-01-11T08:00:44.941Z,999.63
2017-01-11T08:01:25.566Z,999.62
2017-01-11T08:02:06.221Z,999.6
2017-01-11T08:02:46.878Z,999.56
2017-01-11T08:03:28.597Z,999.49
2017-01-11T08:04:09.225Z,999.47
2017-01-11T08:04:49.862Z,999.41
2017-01-11T08:05:30.515Z,999.41
2017-01-11T08:06:12.188Z,999.45
2017-01-11T08:06:57.793Z,999.47
2017-01-11T08:07:38.462Z,999.47
2017-01-11T08:08:19.028Z,999.52
2017-01-11T08:08:59.724Z,999.5
2017-01-11T08:09:40.417Z,999.57
2017-01-11T08:10:22.096Z,999.59
2017-01-11T08:11:02.672Z,999.59
2017-01-11T08:11:43.259Z,999.6
2017-01-11T08:12:25.909Z,999.58
2017-01-11T08:13:06.562Z,999.57
2017-01-11T08:13:47.215Z,999.51
2017-01-11T08:14:32.768Z,999.5
2017-01-11T08:15:13.519Z,999.42
2017-01-11T08:15:54.179Z,999.37
2017-01-11T08:16:34.826Z,999.34